PWSweather.com
Personal Weather Stations
Station Observations
UISISLE1
Newport, Isle ofWight, ISLE OF WIGHT PO30 2JX

NewportIsle ofWight, ISLE OF WIGHT PO30 2JX

Lat: 50.72, Lon: -1.27

Elevation: 45

Station Type: Davis Vantage Pro Plus

http://www.isleofwightweather.co.uk

High Low Average
Temperature 56.1°F13.4°C 34.3°F1.3°C 47.7°F8.7°C
Dew Point 47.0°F8.3°C 32.0°F0.0°C 41.5°F5.3°C
Winds 14.1 mph 22.7 kmh Calm Calm 5.0 mph SW8.0 kmh SW
Wind Gusts 20.0 mph32.2 kmh -- 8.0 mph12.9 kmh
Humidity 95% 68% 80%
Pressure 29.90 in1012.5 mb 29.76 in1007.8 mb -
Precipitation 0.00 in0.0 mm - -
Hour Temp Dew Point Humidity Winds Wind Gusts Pressure Precip Precip Rate Daily Precip Total
12:00 AM 39.8°F4.3°C 35.4°F1.9°C 84% 2.7 mph SW4.3 kmh SW 4.0 mph6.4 kmh 29.85 in1010.8 mb - 0.00 in0.0 mm 0.00 in0.0 mm
12:15 AM 39.6°F4.2°C 35.5°F1.9°C 85% 2.4 mph SW3.9 kmh SW 4.0 mph6.4 kmh 29.85 in1010.8 mb - 0.00 in0.0 mm 0.00 in0.0 mm
12:30 AM 39.6°F4.2°C 35.8°F2.1°C 86% 0.3 mph SW0.5 kmh SW 2.0 mph3.2 kmh 29.86 in1011.2 mb - 0.00 in0.0 mm 0.00 in0.0 mm
12:45 AM 39.6°F4.2°C 36.0°F2.2°C 87% 0.1 mph SW0.2 kmh SW -- 29.86 in1011.2 mb - 0.00 in0.0 mm 0.00 in0.0 mm
01:00 AM 39.4°F4.1°C 36.1°F2.3°C 88% Calm Calm -- 29.85 in1010.8 mb - 0.00 in0.0 mm 0.00 in0.0 mm
01:15 AM 39.0°F3.9°C 35.8°F2.1°C 88% Calm Calm -- 29.86 in1011.2 mb - 0.00 in0.0 mm 0.00 in0.0 mm
01:30 AM 38.8°F3.8°C 35.8°F2.1°C 89% 0.5 mph SW0.8 kmh SW 1.0 mph1.6 kmh 29.86 in1011.2 mb - 0.00 in0.0 mm 0.00 in0.0 mm
01:45 AM 38.4°F3.6°C 35.4°F1.9°C 89% 0.6 mph SW1.0 kmh SW 1.0 mph1.6 kmh 29.86 in1011.2 mb - 0.00 in0.0 mm 0.00 in0.0 mm
02:00 AM 38.0°F3.3°C 35.0°F1.7°C 89% Calm Calm -- 29.86 in1011.2 mb - 0.00 in0.0 mm 0.00 in0.0 mm
02:15 AM 37.7°F3.2°C 34.7°F1.5°C 89% Calm Calm -- 29.86 in1011.2 mb - 0.00 in0.0 mm 0.00 in0.0 mm
02:30 AM 37.4°F3.0°C 34.5°F1.4°C 89% 0.4 mph WNW0.6 kmh WNW -- 29.86 in1011.2 mb - 0.00 in0.0 mm 0.00 in0.0 mm
02:45 AM 37.2°F2.9°C 34.5°F1.4°C 90% Calm Calm -- 29.87 in1011.5 mb - 0.00 in0.0 mm 0.00 in0.0 mm
03:00 AM 37.1°F2.8°C 34.4°F1.3°C 90% Calm Calm -- 29.87 in1011.5 mb - 0.00 in0.0 mm 0.00 in0.0 mm
03:15 AM 36.8°F2.7°C 34.1°F1.2°C 90% 0.7 mph WNW1.1 kmh WNW 3.1 mph5.0 kmh 29.87 in1011.5 mb - 0.00 in0.0 mm 0.00 in0.0 mm
03:30 AM 36.5°F2.5°C 33.8°F1.0°C 90% Calm Calm -- 29.87 in1011.5 mb - 0.00 in0.0 mm 0.00 in0.0 mm
03:45 AM 36.4°F2.4°C 34.0°F1.1°C 91% Calm Calm -- 29.87 in1011.5 mb - 0.00 in0.0 mm 0.00 in0.0 mm
04:00 AM 36.1°F2.3°C 33.8°F1.0°C 91% Calm Calm -- 29.87 in1011.5 mb - 0.00 in0.0 mm 0.00 in0.0 mm
04:15 AM 35.8°F2.1°C 33.4°F0.8°C 91% Calm Calm -- 29.87 in1011.5 mb - 0.00 in0.0 mm 0.00 in0.0 mm
04:30 AM 35.5°F1.9°C 33.1°F0.6°C 91% Calm Calm -- 29.87 in1011.5 mb - 0.00 in0.0 mm 0.00 in0.0 mm
04:45 AM 35.2°F1.8°C 32.8°F0.4°C 91% Calm Calm -- 29.87 in1011.5 mb - 0.00 in0.0 mm 0.00 in0.0 mm
05:00 AM 34.9°F1.6°C 32.5°F0.3°C 91% Calm Calm -- 29.87 in1011.5 mb - 0.00 in0.0 mm 0.00 in0.0 mm
05:15 AM 34.6°F1.4°C 32.2°F0.1°C 91% Calm Calm -- 29.88 in1011.9 mb - 0.00 in0.0 mm 0.00 in0.0 mm
05:30 AM 34.3°F1.3°C 32.0°F0.0°C 91% Calm Calm -- 29.88 in1011.9 mb - 0.00 in0.0 mm 0.00 in0.0 mm
05:45 AM 34.6°F1.4°C 32.5°F0.3°C 92% 2.2 mph WSW3.5 kmh WSW 3.0 mph4.8 kmh 29.88 in1011.9 mb - 0.00 in0.0 mm 0.00 in0.0 mm
06:00 AM 35.7°F2.1°C 33.9°F1.1°C 93% 1.6 mph SW2.6 kmh SW 4.0 mph6.4 kmh 29.89 in1012.2 mb - 0.00 in0.0 mm 0.00 in0.0 mm
06:15 AM 37.1°F2.8°C 35.5°F1.9°C 94% 2.2 mph SSW3.5 kmh SSW 5.0 mph8.0 kmh 29.89 in1012.2 mb - 0.00 in0.0 mm 0.00 in0.0 mm
06:30 AM 38.4°F3.6°C 36.8°F2.7°C 94% 2.6 mph WSW4.2 kmh WSW 4.0 mph6.4 kmh 29.89 in1012.2 mb - 0.00 in0.0 mm 0.00 in0.0 mm
06:45 AM 39.8°F4.3°C 38.2°F3.4°C 94% 0.3 mph SW0.5 kmh SW 1.0 mph1.6 kmh 29.89 in1012.2 mb - 0.00 in0.0 mm 0.00 in0.0 mm
07:00 AM 41.2°F5.1°C 39.9°F4.4°C 95% 3.2 mph WSW5.1 kmh WSW 5.0 mph8.0 kmh 29.89 in1012.2 mb - 0.00 in0.0 mm 0.00 in0.0 mm
07:15 AM 42.7°F5.9°C 41.3°F5.2°C 95% 1.6 mph WSW2.6 kmh WSW 3.0 mph4.8 kmh 29.89 in1012.2 mb - 0.00 in0.0 mm 0.00 in0.0 mm
07:30 AM 44.3°F6.8°C 42.6°F5.9°C 94% 1.7 mph W2.7 kmh W 5.1 mph8.2 kmh 29.89 in1012.2 mb - 0.00 in0.0 mm 0.00 in0.0 mm
07:45 AM 46.0°F7.8°C 44.4°F6.9°C 94% 2.4 mph NW3.9 kmh NW 4.1 mph6.6 kmh 29.89 in1012.2 mb - 0.00 in0.0 mm 0.00 in0.0 mm
08:00 AM 48.0°F8.9°C 45.5°F7.5°C 91% 2.9 mph SW4.7 kmh SW 6.0 mph9.7 kmh 29.89 in1012.2 mb - 0.00 in0.0 mm 0.00 in0.0 mm
08:15 AM 49.8°F9.9°C 45.8°F7.7°C 86% 5.6 mph W9.0 kmh W 9.0 mph14.5 kmh 29.89 in1012.2 mb - 0.00 in0.0 mm 0.00 in0.0 mm
08:30 AM 50.9°F10.5°C 45.6°F7.6°C 82% 8.3 mph SW13.4 kmh SW 13.0 mph20.9 kmh 29.89 in1012.2 mb - 0.00 in0.0 mm 0.00 in0.0 mm
08:45 AM 51.5°F10.8°C 45.2°F7.3°C 79% 4.7 mph WSW7.6 kmh WSW 9.3 mph15.0 kmh 29.89 in1012.2 mb - 0.00 in0.0 mm 0.00 in0.0 mm
09:00 AM 52.4°F11.3°C 45.4°F7.4°C 77% 7.1 mph WSW11.4 kmh WSW 11.0 mph17.7 kmh 29.89 in1012.2 mb - 0.00 in0.0 mm 0.00 in0.0 mm
09:15 AM 53.6°F12.0°C 46.6°F8.1°C 77% 6.5 mph WSW10.5 kmh WSW 10.0 mph16.1 kmh 29.90 in1012.5 mb - 0.00 in0.0 mm 0.00 in0.0 mm
09:30 AM 54.3°F12.4°C 46.2°F7.9°C 74% 7.0 mph W11.3 kmh W 11.3 mph18.2 kmh 29.90 in1012.5 mb - 0.00 in0.0 mm 0.00 in0.0 mm
09:45 AM 54.0°F12.2°C 45.1°F7.3°C 72% 7.1 mph WSW11.4 kmh WSW 10.0 mph16.1 kmh 29.90 in1012.5 mb - 0.00 in0.0 mm 0.00 in0.0 mm
10:00 AM 54.5°F12.5°C 46.0°F7.8°C 73% 4.7 mph WSW7.6 kmh WSW 12.0 mph19.3 kmh 29.89 in1012.2 mb - 0.00 in0.0 mm 0.00 in0.0 mm
10:15 AM 54.9°F12.7°C 45.3°F7.4°C 70% 6.7 mph SW10.8 kmh SW 11.0 mph17.7 kmh 29.89 in1012.2 mb - 0.00 in0.0 mm 0.00 in0.0 mm
10:30 AM 54.7°F12.6°C 44.7°F7.1°C 69% 7.0 mph SW11.3 kmh SW 15.0 mph24.1 kmh 29.89 in1012.2 mb - 0.00 in0.0 mm 0.00 in0.0 mm
10:45 AM 54.8°F12.7°C 44.8°F7.1°C 69% 8.1 mph W13.0 kmh W 11.0 mph17.7 kmh 29.89 in1012.2 mb - 0.00 in0.0 mm 0.00 in0.0 mm
11:00 AM 54.9°F12.7°C 44.9°F7.2°C 69% 5.5 mph SW8.9 kmh SW 13.0 mph20.9 kmh 29.89 in1012.2 mb - 0.00 in0.0 mm 0.00 in0.0 mm
11:15 AM 55.5°F13.1°C 45.1°F7.3°C 68% 9.3 mph WSW15.0 kmh WSW 15.0 mph24.1 kmh 29.89 in1012.2 mb - 0.00 in0.0 mm 0.00 in0.0 mm
11:30 AM 55.4°F13.0°C 45.0°F7.2°C 68% 7.8 mph SSW12.6 kmh SSW 13.0 mph20.9 kmh 29.89 in1012.2 mb - 0.00 in0.0 mm 0.00 in0.0 mm
11:45 AM 54.6°F12.6°C 44.6°F7.0°C 69% 10.8 mph W17.4 kmh W 19.0 mph30.6 kmh 29.89 in1012.2 mb - 0.00 in0.0 mm 0.00 in0.0 mm
12:00 PM 54.6°F12.6°C 45.4°F7.4°C 71% 12.4 mph WSW20.0 kmh WSW 16.0 mph25.7 kmh 29.89 in1012.2 mb - 0.00 in0.0 mm 0.00 in0.0 mm
12:15 PM 54.4°F12.4°C 45.5°F7.5°C 72% 10.0 mph SW16.1 kmh SW 17.0 mph27.4 kmh 29.89 in1012.2 mb - 0.00 in0.0 mm 0.00 in0.0 mm
12:30 PM 54.9°F12.7°C 46.0°F7.8°C 72% 11.2 mph W18.0 kmh W 17.0 mph27.4 kmh 29.89 in1012.2 mb - 0.00 in0.0 mm 0.00 in0.0 mm
12:45 PM 55.2°F12.9°C 46.0°F7.8°C 71% 11.1 mph SW17.9 kmh SW 16.0 mph25.7 kmh 29.89 in1012.2 mb - 0.00 in0.0 mm 0.00 in0.0 mm
01:00 PM 55.2°F12.9°C 46.0°F7.8°C 71% 7.7 mph WSW12.4 kmh WSW 13.0 mph20.9 kmh 29.89 in1012.2 mb - 0.00 in0.0 mm 0.00 in0.0 mm
01:15 PM 55.6°F13.1°C 45.2°F7.3°C 68% 10.0 mph WSW16.1 kmh WSW 19.0 mph30.6 kmh 29.89 in1012.2 mb - 0.00 in0.0 mm 0.00 in0.0 mm
01:30 PM 55.2°F12.9°C 46.0°F7.8°C 71% 12.4 mph SW20.0 kmh SW 20.0 mph32.2 kmh 29.89 in1012.2 mb - 0.00 in0.0 mm 0.00 in0.0 mm
01:45 PM 56.1°F13.4°C 46.4°F8.0°C 70% 8.6 mph WSW13.8 kmh WSW 13.0 mph20.9 kmh 29.88 in1011.9 mb - 0.00 in0.0 mm 0.00 in0.0 mm
02:00 PM 55.5°F13.1°C 45.5°F7.5°C 69% 10.0 mph SW16.1 kmh SW 17.0 mph27.4 kmh 29.88 in1011.9 mb - 0.00 in0.0 mm 0.00 in0.0 mm
02:15 PM 53.6°F12.0°C 45.2°F7.3°C 73% 10.1 mph WSW16.3 kmh WSW 15.0 mph24.1 kmh 29.88 in1011.9 mb - 0.00 in0.0 mm 0.00 in0.0 mm
02:30 PM 54.3°F12.4°C 46.2°F7.9°C 74% 11.3 mph WSW18.2 kmh WSW 16.0 mph25.7 kmh 29.87 in1011.5 mb - 0.00 in0.0 mm 0.00 in0.0 mm
02:45 PM 55.1°F12.8°C 47.0°F8.3°C 74% 9.4 mph SW15.1 kmh SW 20.0 mph32.2 kmh 29.87 in1011.5 mb - 0.00 in0.0 mm 0.00 in0.0 mm
03:00 PM 55.8°F13.2°C 46.2°F7.9°C 70% 14.1 mph SW22.7 kmh SW 20.0 mph32.2 kmh 29.87 in1011.5 mb - 0.00 in0.0 mm 0.00 in0.0 mm
03:15 PM 55.7°F13.2°C 45.7°F7.6°C 69% 12.0 mph W19.3 kmh W 19.0 mph30.6 kmh 29.86 in1011.2 mb - 0.00 in0.0 mm 0.00 in0.0 mm
03:30 PM 54.5°F12.5°C 44.5°F6.9°C 69% 6.7 mph SW10.8 kmh SW 11.0 mph17.7 kmh 29.86 in1011.2 mb - 0.00 in0.0 mm 0.00 in0.0 mm
03:45 PM 54.4°F12.4°C 44.8°F7.1°C 70% 10.2 mph S16.4 kmh S 13.0 mph20.9 kmh 29.85 in1010.8 mb - 0.00 in0.0 mm 0.00 in0.0 mm
04:00 PM 54.1°F12.3°C 44.5°F6.9°C 70% 11.5 mph WSW18.5 kmh WSW 15.0 mph24.1 kmh 29.84 in1010.5 mb - 0.00 in0.0 mm 0.00 in0.0 mm
04:15 PM 53.7°F12.1°C 44.5°F6.9°C 71% 8.5 mph W13.7 kmh W 13.0 mph20.9 kmh 29.84 in1010.5 mb - 0.00 in0.0 mm 0.00 in0.0 mm
04:30 PM 53.4°F11.9°C 44.3°F6.8°C 71% 9.6 mph SSW15.4 kmh SSW 16.0 mph25.7 kmh 29.84 in1010.5 mb - 0.00 in0.0 mm 0.00 in0.0 mm
04:45 PM 53.1°F11.7°C 43.9°F6.6°C 71% 6.9 mph WSW11.1 kmh WSW 12.0 mph19.3 kmh 29.84 in1010.5 mb - 0.00 in0.0 mm 0.00 in0.0 mm
05:00 PM 52.9°F11.6°C 43.0°F6.1°C 69% 7.4 mph SW11.9 kmh SW 11.0 mph17.7 kmh 29.83 in1010.2 mb - 0.00 in0.0 mm 0.00 in0.0 mm
05:15 PM 52.7°F11.5°C 42.8°F6.0°C 69% 8.2 mph WSW13.2 kmh WSW 16.0 mph25.7 kmh 29.83 in1010.2 mb - 0.00 in0.0 mm 0.00 in0.0 mm
05:30 PM 52.5°F11.4°C 43.0°F6.1°C 70% 8.0 mph SSW12.9 kmh SSW 10.0 mph16.1 kmh 29.83 in1010.2 mb - 0.00 in0.0 mm 0.00 in0.0 mm
05:45 PM 52.2°F11.2°C 42.7°F5.9°C 70% 5.1 mph SSW8.2 kmh SSW 8.0 mph12.9 kmh 29.83 in1010.2 mb - 0.00 in0.0 mm 0.00 in0.0 mm
06:00 PM 51.7°F10.9°C 42.6°F5.9°C 71% 7.2 mph SW11.6 kmh SW 10.0 mph16.1 kmh 29.82 in1009.8 mb - 0.00 in0.0 mm 0.00 in0.0 mm
06:15 PM 51.3°F10.7°C 42.6°F5.9°C 72% 8.4 mph SSW13.5 kmh SSW 10.0 mph16.1 kmh 29.82 in1009.8 mb - 0.00 in0.0 mm 0.00 in0.0 mm
06:30 PM 50.9°F10.5°C 42.6°F5.9°C 73% 4.4 mph S7.1 kmh S 7.0 mph11.3 kmh 29.82 in1009.8 mb - 0.00 in0.0 mm 0.00 in0.0 mm
06:45 PM 50.7°F10.4°C 42.7°F5.9°C 74% 4.7 mph SW7.6 kmh SW 6.0 mph9.7 kmh 29.82 in1009.8 mb - 0.00 in0.0 mm 0.00 in0.0 mm
07:00 PM 50.4°F10.2°C 42.8°F6.0°C 75% 3.2 mph SSW5.1 kmh SSW 9.0 mph14.5 kmh 29.82 in1009.8 mb - 0.00 in0.0 mm 0.00 in0.0 mm
07:15 PM 50.0°F10.0°C 42.4°F5.8°C 75% 4.1 mph S6.6 kmh S 6.0 mph9.7 kmh 29.82 in1009.8 mb - 0.00 in0.0 mm 0.00 in0.0 mm
07:30 PM 49.7°F9.8°C 42.4°F5.8°C 76% 2.7 mph SSW4.3 kmh SSW 5.0 mph8.0 kmh 29.81 in1009.5 mb - 0.00 in0.0 mm 0.00 in0.0 mm
07:45 PM 49.6°F9.8°C 42.7°F5.9°C 77% 3.6 mph SW5.8 kmh SW 5.0 mph8.0 kmh 29.81 in1009.5 mb - 0.00 in0.0 mm 0.00 in0.0 mm
08:00 PM 49.5°F9.7°C 42.6°F5.9°C 77% 2.6 mph SE4.2 kmh SE 5.0 mph8.0 kmh 29.81 in1009.5 mb - 0.00 in0.0 mm 0.00 in0.0 mm
08:15 PM 49.6°F9.8°C 43.0°F6.1°C 78% 1.5 mph SSW2.4 kmh SSW 5.0 mph8.0 kmh 29.81 in1009.5 mb - 0.00 in0.0 mm 0.00 in0.0 mm
08:30 PM 49.6°F9.8°C 43.4°F6.3°C 79% 3.1 mph S5.0 kmh S 6.0 mph9.7 kmh 29.80 in1009.1 mb - 0.00 in0.0 mm 0.00 in0.0 mm
08:45 PM 49.6°F9.8°C 43.4°F6.3°C 79% 4.4 mph SW7.1 kmh SW 7.0 mph11.3 kmh 29.80 in1009.1 mb - 0.00 in0.0 mm 0.00 in0.0 mm
09:00 PM 49.6°F9.8°C 43.4°F6.3°C 79% 4.6 mph SW7.4 kmh SW 8.0 mph12.9 kmh 29.80 in1009.1 mb - 0.00 in0.0 mm 0.00 in0.0 mm
09:15 PM 49.6°F9.8°C 43.4°F6.3°C 79% 3.8 mph S6.1 kmh S 7.0 mph11.3 kmh 29.79 in1008.8 mb - 0.00 in0.0 mm 0.00 in0.0 mm
09:30 PM 49.8°F9.9°C 43.5°F6.4°C 79% 3.7 mph S6.0 kmh S 6.0 mph9.7 kmh 29.79 in1008.8 mb - 0.00 in0.0 mm 0.00 in0.0 mm
09:45 PM 49.8°F9.9°C 43.5°F6.4°C 79% 4.3 mph SW6.9 kmh SW 6.0 mph9.7 kmh 29.79 in1008.8 mb - 0.00 in0.0 mm 0.00 in0.0 mm
10:00 PM 49.7°F9.8°C 43.5°F6.4°C 79% 4.3 mph SW6.9 kmh SW 7.0 mph11.3 kmh 29.78 in1008.5 mb - 0.00 in0.0 mm 0.00 in0.0 mm
10:15 PM 49.7°F9.8°C 43.5°F6.4°C 79% 4.1 mph SSW6.6 kmh SSW 6.0 mph9.7 kmh 29.78 in1008.5 mb - 0.00 in0.0 mm 0.00 in0.0 mm
10:30 PM 49.7°F9.8°C 43.8°F6.6°C 80% 3.4 mph S5.5 kmh S 6.0 mph9.7 kmh 29.77 in1008.1 mb - 0.00 in0.0 mm 0.00 in0.0 mm
10:45 PM 49.7°F9.8°C 43.8°F6.6°C 80% 6.6 mph SW10.6 kmh SW 10.0 mph16.1 kmh 29.77 in1008.1 mb - 0.00 in0.0 mm 0.00 in0.0 mm
11:00 PM 49.8°F9.9°C 44.6°F7.0°C 82% 6.7 mph SE10.8 kmh SE 8.0 mph12.9 kmh 29.77 in1008.1 mb - 0.00 in0.0 mm 0.00 in0.0 mm
11:15 PM 49.9°F9.9°C 44.9°F7.2°C 83% 5.6 mph SSW9.0 kmh SSW 9.0 mph14.5 kmh 29.77 in1008.1 mb - 0.00 in0.0 mm 0.00 in0.0 mm
11:30 PM 49.9°F9.9°C 45.3°F7.4°C 84% 8.7 mph SSW14.0 kmh SSW 12.0 mph19.3 kmh 29.76 in1007.8 mb - 0.00 in0.0 mm 0.00 in0.0 mm
11:45 PM 49.8°F9.9°C 45.2°F7.3°C 84% 9.5 mph SW15.3 kmh SW 15.0 mph24.1 kmh 29.76 in1007.8 mb - 0.00 in0.0 mm 0.00 in0.0 mm